Flight Track Log - Related Links

Times and Time Zones

All times are in EDT time to prevent confusion due to time zone crossing. See the JIA2335 flight status page for this flight to view local times or setup timezone preferences in your user account.

Time Position Orientation Groundspeed Altitude Reporting Facility
EDT Latitude Longitude Course Direction KTS MPH feet Rate Location/Type
Thu 09:34:47 AM 39.8833 -75.2000 270° West 148 170 1,300  Level Philadelphia TRACON
Thu 09:37:00 AM 39.9000 -75.5722 270° West  Level FlightAware Approximate
Thu 09:37:11 AM 39.9603 -75.1825 10° North 150 173 7,400  Level New York Center
Thu 09:38:00 AM 39.9132 -75.6876 258° West  Level FlightAware Approximate
Thu 09:38:11 AM 39.9544 -75.2797 266° West 219 252 9,700  Level New York Center
Thu 09:39:00 AM 39.9000 -75.8045 270° West  Level FlightAware Approximate
Thu 09:39:09 AM 39.9461 -75.3875 264° West 273 314 10,000  Level New York Center
Thu 09:40:00 AM 39.9000 -75.9232 270° West  Level FlightAware Approximate
Thu 09:40:10 AM 39.9350 -75.5058 263° West 323 372 10,000  Level New York Center
Thu 09:41:10 AM 39.9192 -75.6428 261° West 354 407 10,700 1,140 Climbing New York Center
Thu 09:42:11 AM 39.9142 -75.7617 267° West 369 425 12,300 1,916 Climbing New York Center
Thu 09:43:09 AM 39.9117 -75.9131 269° West 374 430 14,500 2,017 Climbing New York Center
Thu 09:44:10 AM 39.9106 -76.0347 269° West 380 437 16,300 1,736 Climbing New York Center
Thu 09:45:10 AM 39.9058 -76.1833 268° West 385 443 18,000 1,240 Climbing New York Center
Thu 09:46:11 AM 39.9125 -76.3111 274° West 390 449 18,800 1,140 Climbing New York Center
Thu 09:47:11 AM 39.9161 -76.4519 272° West 390 449 20,300 1,450 Climbing New York Center
Thu 09:48:11 AM 39.9236 -76.5989 274° West 402 463 21,700 1,169 Climbing New York Center
Thu 09:49:09 AM 39.9289 -76.7456 273° West 407 468 22,600 966 Climbing New York Center
Thu 09:50:09 AM 39.9336 -76.8950 272° West 407 468 23,600 992 Climbing New York Center
Thu 09:51:10 AM 39.9403 -77.0444 273° West 407 468 24,600 1,041 Climbing New York Center
Thu 09:52:10 AM 39.9450 -77.1939 272° West 407 468 25,700 917 Climbing New York Center
Thu 09:53:47 AM 39.9556 -77.4575 273° West 403 464 27,000 764 Climbing Cleveland Center
Thu 09:54:47 AM 39.9636 -77.6117 274° West 415 478 27,700 500 Climbing Cleveland Center
Thu 09:55:47 AM 39.9678 -77.7686 272° West 422 486 28,000 150 Climbing Cleveland Center
Thu 09:56:47 AM 39.9717 -77.9283 272° West 432 497 28,000  Level Cleveland Center
Thu 09:57:47 AM 39.9775 -78.0933 273° West 447 514 28,000  Level Cleveland Center
Thu 09:58:47 AM 39.9831 -78.2611 273° West 458 527 28,000  Level Cleveland Center
Thu 09:59:47 AM 39.9844 -78.4317 271° West 470 541 28,000  Level Cleveland Center
Thu 10:00:47 AM 39.9936 -78.5994 274° West 470 541 28,000  Level Cleveland Center
Thu 10:01:47 AM 40.0025 -78.7644 274° West 470 541 28,000  Level Cleveland Center
Thu 10:02:47 AM 40.0136 -78.9322 275° West 470 541 28,000  Level Cleveland Center
Thu 10:03:47 AM 40.0217 -79.0783 274° West 460 529 28,000  Level Cleveland Center
Thu 10:04:47 AM 40.0303 -79.2464 274° West 460 529 28,000  Level Cleveland Center
Thu 10:05:47 AM 40.0403 -79.4144 274° West 460 529 28,000  Level Cleveland Center
Thu 10:06:47 AM 40.0481 -79.5825 274° West 460 529 28,000  Level Cleveland Center
Thu 10:07:47 AM 40.0558 -79.7478 274° West 460 529 28,000  Level Cleveland Center
Thu 10:08:47 AM 40.0653 -79.9158 274° West 460 529 28,000  Level Cleveland Center
Thu 10:09:47 AM 40.0683 -80.0975 271° West 453 521 28,000  Level Cleveland Center
Thu 10:10:47 AM 40.0731 -80.2656 272° West 459 528 28,000  Level Cleveland Center
Thu 10:11:47 AM 40.0858 -80.4122 277° West 459 528 28,000  Level Cleveland Center
Thu 10:12:47 AM 40.0922 -80.5967 273° West 459 528 28,000  Level Cleveland Center
Thu 10:14:46 AM 40.1003 -80.9025 272° West 463 533 28,000  Level Indianapolis Center
Thu 10:15:48 AM 40.1078 -81.1003 273° West 463 533 28,000  Level Indianapolis Center
Thu 10:16:50 AM 40.1136 -81.2686 273° West 460 529 28,000  Level Indianapolis Center
Thu 10:17:52 AM 40.1183 -81.4372 272° West 461 531 28,000  Level Indianapolis Center
Thu 10:18:54 AM 40.1242 -81.6081 273° West 465 535 28,000 -242 Level Indianapolis Center
Thu 10:19:56 AM 40.1292 -81.7753 272° West 459 528 27,500 -1,016 Descending Indianapolis Center
Thu 10:20:58 AM 40.1347 -81.9622 272° West 460 529 25,900 -1,452 Descending Indianapolis Center
Thu 10:22:00 AM 40.1397 -82.1294 272° West 457 526 24,500 -1,355 Descending Indianapolis Center
Thu 10:23:02 AM 40.1442 -82.2925 272° West 449 517 23,100 -1,403 Descending Indianapolis Center
Thu 10:24:04 AM 40.1486 -82.4525 272° West 440 506 21,600 -1,403 Descending Indianapolis Center
Thu 10:25:06 AM 40.1511 -82.6100 271° West 433 498 20,200 -1,355 Descending Indianapolis Center
Thu 10:26:08 AM 40.1606 -82.7642 275° West 424 488 18,800 -1,210 Descending Indianapolis Center
Thu 10:27:10 AM 40.1678 -82.9147 274° West 413 475 17,700 -1,355 Descending Indianapolis Center
Thu 10:28:12 AM 40.1772 -83.0850 274° West 402 463 16,000 -1,500 Descending Indianapolis Center
Thu 10:29:14 AM 40.1839 -83.2242 274° West 388 447 14,600 -1,403 Descending Indianapolis Center
Thu 10:30:16 AM 40.1903 -83.3631 273° West 382 440 13,100 -1,355 Descending Indianapolis Center
Thu 10:31:18 AM 40.1958 -83.4997 273° West 378 435 11,800 -1,333 Descending Indianapolis Center
Thu 10:31:46 AM 40.1964 -83.5767 271° West 366 421 11,100 -1,258 Descending Indianapolis Center
Thu 10:32:20 AM 40.1844 -83.6292 253° West 364 419 10,500 -1,091 Descending Indianapolis Center
Thu 10:32:41 AM 40.1708 -83.6964 255° West 365 420 10,100 -484 Descending Indianapolis Center
Thu 10:33:22 AM 40.1528 -83.7792 254° West 367 422 10,000 -98 Descending Indianapolis Center
Thu 10:33:42 AM 40.1428 -83.8211 253° West 365 420 10,000  Level Indianapolis Center
Thu 10:34:24 AM 40.1250 -83.9064 255° West 363 418 10,000  Level Indianapolis Center
Thu 10:34:43 AM 40.1164 -83.9486 255° West 360 414 10,000  Level Indianapolis Center
Thu 10:35:26 AM 40.0961 -84.0292 252° West 353 406 10,000 -197 Level Indianapolis Center
Thu 10:35:44 AM 40.0806 -84.0586 235° Southwest 299 344 9,800 -1,619 Descending Indianapolis Center
Thu 10:36:29 AM 40.0489 -84.1183 235° Southwest 300 345 8,300 -1,966 Descending Indianapolis Center
Thu 10:37:40 AM 39.9967 -84.2219 237° Southwest 278 320 6,000 -1,258 Descending Indianapolis Center
Thu 10:38:33 AM 39.9669 -84.2842 238° Southwest 274 315 5,700 -1,252 Descending Indianapolis Center
Thu 10:39:35 AM 39.9206 -84.3389 222° Southwest 231 266 3,600 -1,548 Descending Indianapolis Center
Thu 10:40:37 AM 39.8758 -84.3172 160° South 192 221 2,500 -1,065 Descending Indianapolis Center

Login

Don't have an account? Register now (free) for customized features, flight alerts, and more!